createdAt,value
2023-03-12T00:00:40.315Z,100.00
2023-03-12T00:03:34.861Z,100.00
2023-03-12T00:06:10.538Z,100.00
2023-03-12T00:08:45.491Z,100.00
2023-03-12T00:11:16.993Z,100.00
2023-03-12T00:14:03.025Z,100.00
2023-03-12T00:16:46.748Z,100.00
2023-03-12T00:19:27.834Z,100.00
2023-03-12T00:22:02.294Z,100.00
2023-03-12T00:24:58.211Z,100.00
2023-03-12T00:27:29.479Z,100.00
2023-03-12T00:30:00.982Z,100.00
2023-03-12T00:32:37.310Z,100.00
2023-03-12T00:35:09.283Z,100.00
2023-03-12T00:37:44.301Z,100.00
2023-03-12T00:40:18.789Z,100.00
2023-03-12T00:42:52.692Z,100.00
2023-03-12T00:45:21.311Z,100.00
2023-03-12T00:47:54.916Z,100.00
2023-03-12T00:50:22.745Z,100.00
2023-03-12T00:52:51.939Z,100.00
2023-03-12T00:55:22.161Z,100.00
2023-03-12T00:57:53.003Z,100.00
2023-03-12T01:00:21.739Z,100.00
2023-03-12T01:02:53.516Z,100.00
2023-03-12T01:05:29.202Z,100.00
2023-03-12T01:08:05.284Z,100.00
2023-03-12T01:10:45.919Z,100.00
2023-03-12T01:13:41.499Z,100.00
2023-03-12T01:16:16.009Z,100.00
2023-03-12T01:19:12.185Z,100.00
2023-03-12T01:21:48.052Z,100.00
2023-03-12T01:24:18.912Z,100.00
2023-03-12T01:26:50.154Z,100.00
2023-03-12T01:29:19.491Z,100.00
2023-03-12T01:31:55.760Z,100.00
2023-03-12T01:34:30.988Z,100.00
2023-03-12T01:37:03.045Z,100.00
2023-03-12T01:39:36.123Z,100.00
2023-03-12T01:42:07.711Z,100.00
2023-03-12T01:44:55.321Z,100.00
2023-03-12T01:47:33.922Z,100.00
2023-03-12T01:50:16.954Z,100.00
2023-03-12T01:52:50.112Z,100.00
2023-03-12T01:55:24.905Z,100.00
2023-03-12T01:58:08.495Z,100.00
2023-03-12T02:00:40.846Z,100.00
2023-03-12T02:03:22.127Z,100.00
2023-03-12T02:06:22.328Z,100.00
2023-03-12T02:08:57.286Z,100.00
2023-03-12T02:11:27.721Z,100.00
2023-03-12T02:14:04.126Z,100.00
2023-03-12T02:16:37.918Z,100.00
2023-03-12T02:19:25.191Z,100.00
2023-03-12T02:22:01.470Z,100.00
2023-03-12T02:24:45.674Z,100.00
2023-03-12T02:27:20.008Z,100.00
2023-03-12T02:30:02.025Z,100.00
2023-03-12T02:32:41.067Z,100.00
2023-03-12T02:35:24.251Z,100.00
2023-03-12T02:37:59.164Z,100.00
2023-03-12T02:40:47.141Z,100.00
2023-03-12T02:43:32.482Z,100.00
2023-03-12T02:46:05.025Z,100.00
2023-03-12T02:48:38.868Z,100.00
2023-03-12T02:51:20.025Z,100.00
2023-03-12T02:54:26.122Z,100.00
2023-03-12T02:56:54.924Z,100.00
2023-03-12T02:59:29.812Z,100.00
2023-03-12T03:02:09.917Z,100.00
2023-03-12T03:05:02.311Z,100.00
2023-03-12T03:07:33.692Z,100.00
2023-03-12T03:10:04.702Z,100.00
2023-03-12T03:12:42.290Z,100.00
2023-03-12T03:15:12.087Z,100.00
2023-03-12T03:17:43.606Z,100.00
2023-03-12T03:20:18.301Z,100.00
2023-03-12T03:22:52.326Z,100.00
2023-03-12T03:25:23.924Z,100.00
2023-03-12T03:27:59.376Z,100.00
2023-03-12T03:30:29.042Z,100.00
2023-03-12T03:32:59.969Z,100.00
2023-03-12T03:35:29.958Z,100.00
2023-03-12T03:37:59.615Z,100.00
2023-03-12T03:40:30.206Z,100.00
2023-03-12T03:43:04.924Z,100.00
2023-03-12T03:45:38.275Z,100.00
2023-03-12T03:48:12.031Z,100.00
2023-03-12T03:50:43.405Z,100.00
2023-03-12T03:53:16.769Z,100.00
2023-03-12T03:55:46.937Z,100.00
2023-03-12T03:58:21.106Z,100.00
2023-03-12T04:00:58.893Z,100.00
2023-03-12T04:03:29.026Z,100.00
2023-03-12T04:06:01.828Z,100.00
2023-03-12T04:08:37.599Z,100.00
2023-03-12T04:11:17.074Z,100.00
2023-03-12T04:13:46.081Z,100.00
2023-03-12T04:16:48.252Z,100.00
2023-03-12T04:19:18.667Z,100.00
2023-03-12T04:21:52.459Z,100.00
2023-03-12T04:27:57.922Z,100.00
2023-03-12T04:30:26.863Z,100.00
2023-03-12T04:32:57.344Z,100.00
2023-03-12T04:35:31.730Z,100.00
2023-03-12T04:38:12.634Z,100.00
2023-03-12T04:40:45.041Z,100.00
2023-03-12T04:43:16.262Z,100.00
2023-03-12T04:45:48.939Z,100.00
2023-03-12T04:48:23.670Z,100.00
2023-03-12T04:50:57.888Z,100.00
2023-03-12T04:53:27.936Z,100.00
2023-03-12T04:56:06.863Z,100.00
2023-03-12T04:58:41.184Z,100.00
2023-03-12T05:01:39.040Z,100.00
2023-03-12T05:04:18.076Z,100.00
2023-03-12T05:06:53.610Z,100.00
2023-03-12T05:09:23.507Z,100.00
2023-03-12T05:11:54.350Z,100.00
2023-03-12T05:14:28.705Z,100.00
2023-03-12T05:17:09.441Z,100.00
2023-03-12T05:20:07.099Z,100.00
2023-03-12T05:22:41.345Z,100.00
2023-03-12T05:25:14.232Z,100.00
2023-03-12T05:27:44.100Z,100.00
2023-03-12T05:30:13.799Z,100.00
2023-03-12T05:32:48.123Z,100.00
2023-03-12T05:35:24.464Z,100.00
2023-03-12T05:38:00.438Z,100.00
2023-03-12T05:40:36.250Z,100.00
2023-03-12T05:43:04.683Z,100.00
2023-03-12T05:45:34.104Z,100.00
2023-03-12T05:48:02.656Z,100.00
2023-03-12T05:50:35.537Z,100.00
2023-03-12T05:53:05.603Z,100.00
2023-03-12T05:55:47.094Z,71.96
2023-03-12T05:58:31.454Z,53.02
2023-03-12T06:01:14.966Z,49.85
2023-03-12T06:03:43.941Z,48.57
2023-03-12T06:06:11.972Z,47.32
2023-03-12T06:08:42.153Z,47.28
2023-03-12T06:11:35.978Z,48.10
2023-03-12T06:14:08.922Z,48.53
2023-03-12T06:16:51.857Z,47.50
2023-03-12T06:19:34.056Z,44.63
2023-03-12T06:22:13.356Z,42.54
2023-03-12T06:24:45.657Z,44.18
2023-03-12T06:27:21.169Z,43.01
2023-03-12T06:29:53.027Z,48.15
2023-03-12T06:32:49.348Z,44.26
2023-03-12T06:35:21.719Z,47.23
2023-03-12T06:37:50.341Z,46.02
2023-03-12T06:40:25.874Z,44.18
2023-03-12T06:42:56.392Z,44.46
2023-03-12T06:45:26.159Z,45.59
2023-03-12T06:51:14.086Z,46.36
2023-03-12T06:53:50.053Z,43.70
2023-03-12T06:56:19.038Z,44.50
2023-03-12T06:58:46.344Z,45.96
2023-03-12T07:01:14.224Z,46.96
2023-03-12T07:03:41.979Z,46.40
2023-03-12T07:06:17.571Z,46.94
2023-03-12T07:08:45.390Z,46.73
2023-03-12T07:11:13.857Z,49.03
2023-03-12T07:13:41.607Z,48.21
2023-03-12T07:16:09.559Z,50.49
2023-03-12T07:18:37.013Z,50.76
2023-03-12T07:21:10.794Z,52.35
2023-03-12T07:23:40.168Z,50.55
2023-03-12T07:26:08.059Z,50.60
2023-03-12T07:28:35.332Z,49.77
2023-03-12T07:31:05.017Z,51.05
2023-03-12T07:33:34.238Z,49.83
2023-03-12T07:36:03.693Z,49.60
2023-03-12T07:38:36.661Z,51.57
2023-03-12T07:41:32.355Z,53.83
2023-03-12T07:44:05.914Z,53.34
2023-03-12T07:46:38.185Z,52.86
2023-03-12T07:49:08.162Z,54.90
2023-03-12T07:51:41.373Z,55.80
2023-03-12T07:54:09.762Z,57.46
2023-03-12T07:56:40.094Z,58.58
2023-03-12T07:59:20.754Z,54.21
2023-03-12T08:01:48.788Z,51.10
2023-03-12T08:04:18.850Z,53.37
2023-03-12T08:06:56.903Z,51.63
2023-03-12T08:09:24.362Z,49.20
2023-03-12T08:11:52.182Z,48.20
2023-03-12T08:14:19.483Z,50.49
2023-03-12T08:16:47.707Z,51.43
2023-03-12T08:19:15.159Z,52.65
2023-03-12T08:21:47.107Z,52.82
2023-03-12T08:24:16.573Z,50.87
2023-03-12T08:26:48.210Z,51.25
2023-03-12T08:29:21.571Z,50.92
2023-03-12T08:32:04.207Z,50.33
2023-03-12T08:34:35.357Z,49.45
2023-03-12T08:37:06.979Z,51.30
2023-03-12T08:39:39.368Z,52.58
2023-03-12T08:42:22.804Z,49.90
2023-03-12T08:45:45.692Z,49.29
2023-03-12T08:48:27.785Z,50.73
2023-03-12T08:51:04.332Z,48.67
2023-03-12T08:53:57.191Z,46.98
2023-03-12T08:56:47.046Z,46.20
2023-03-12T08:59:42.809Z,45.90
2023-03-12T09:30:10.230Z,50.48
2023-03-12T10:14:57.804Z,45.38
2023-03-12T10:18:13.353Z,45.58
2023-03-12T10:21:39.020Z,45.19
2023-03-12T10:25:07.360Z,45.01
2023-03-12T10:27:39.960Z,44.56
2023-03-12T10:30:23.378Z,45.62
2023-03-12T10:33:03.538Z,44.69
2023-03-12T10:36:02.008Z,46.28
2023-03-12T10:38:34.599Z,44.46
2023-03-12T10:41:14.615Z,42.60
2023-03-12T10:43:44.116Z,44.24
2023-03-12T10:46:42.529Z,46.49
2023-03-12T10:49:32.492Z,45.65
2023-03-12T10:52:23.139Z,43.90
2023-03-12T10:54:57.316Z,45.67
2023-03-12T10:57:41.079Z,44.40
2023-03-12T11:00:22.450Z,44.14
2023-03-12T11:03:04.952Z,44.91
2023-03-12T11:05:52.445Z,45.38
2023-03-12T11:08:30.257Z,44.42
2023-03-12T11:11:00.716Z,44.73
2023-03-12T11:13:43.470Z,43.60
2023-03-12T11:16:21.382Z,43.45
2023-03-12T11:19:06.329Z,42.75
2023-03-12T11:21:37.239Z,44.31
2023-03-12T11:24:10.888Z,44.43
2023-03-12T11:26:58.324Z,42.94
2023-03-12T11:29:31.919Z,43.37
2023-03-12T11:32:18.904Z,42.98
2023-03-12T11:34:50.176Z,46.01
2023-03-12T11:37:57.083Z,44.68
2023-03-12T11:41:03.634Z,43.60
2023-03-12T11:43:53.916Z,45.15
2023-03-12T11:47:11.796Z,45.95
2023-03-12T11:49:49.947Z,44.43
2023-03-12T11:52:39.660Z,44.41
2023-03-12T11:55:34.463Z,42.31
2023-03-12T11:58:21.870Z,41.65
2023-03-12T12:01:15.153Z,42.96
2023-03-12T12:04:16.686Z,42.77
2023-03-12T12:07:11.642Z,44.10
2023-03-12T12:10:24.036Z,43.81
2023-03-12T12:13:16.824Z,42.47
2023-03-12T12:16:39.269Z,44.47
2023-03-12T12:19:24.805Z,41.73
2023-03-12T12:22:31.324Z,43.89
2023-03-12T12:25:33.035Z,41.44
2023-03-12T12:28:30.053Z,42.84
2023-03-12T12:31:36.399Z,43.92
2023-03-12T12:34:33.930Z,44.15
2023-03-12T12:37:47.097Z,44.84
2023-03-12T12:40:42.282Z,44.85
2023-03-12T12:43:28.426Z,43.09
2023-03-12T12:46:11.484Z,44.82
2023-03-12T12:48:50.606Z,43.47
2023-03-12T12:51:26.966Z,43.77
2023-03-12T12:54:01.271Z,44.93
2023-03-12T12:57:01.797Z,44.14
2023-03-12T12:59:52.357Z,45.47
2023-03-12T13:02:23.235Z,46.69
2023-03-12T13:04:51.320Z,47.97
2023-03-12T13:07:21.663Z,45.74
2023-03-12T13:09:53.549Z,46.36
2023-03-12T13:12:33.222Z,43.72
2023-03-12T13:15:03.124Z,44.70
2023-03-12T13:17:56.575Z,43.64
2023-03-12T13:20:57.536Z,43.32
2023-03-12T13:23:52.198Z,44.24
2023-03-12T13:26:58.085Z,46.40
2023-03-12T13:29:36.543Z,45.99
2023-03-12T13:32:06.111Z,47.04
2023-03-12T13:34:46.362Z,45.49
2023-03-12T13:37:28.945Z,48.75
2023-03-12T13:40:02.150Z,47.82
2023-03-12T13:42:40.096Z,48.29
2023-03-12T13:45:25.543Z,45.31
2023-03-12T13:47:58.321Z,48.23
2023-03-12T13:50:26.235Z,47.64
2023-03-12T13:53:33.747Z,45.73
2023-03-12T13:56:18.365Z,43.73
2023-03-12T13:59:00.084Z,46.52
2023-03-12T14:01:31.636Z,46.40
2023-03-12T14:04:04.409Z,46.50
2023-03-12T14:06:50.389Z,46.11
2023-03-12T14:09:30.128Z,47.10
2023-03-12T14:12:20.284Z,49.82
2023-03-12T14:15:22.050Z,46.66
2023-03-12T14:18:00.032Z,45.48
2023-03-12T14:20:30.050Z,47.64
2023-03-12T14:23:06.258Z,48.02
2023-03-12T14:25:37.693Z,46.45
2023-03-12T14:28:17.459Z,47.97
2023-03-12T14:30:56.407Z,45.99
2023-03-12T14:33:26.051Z,48.46
2023-03-12T14:36:04.895Z,46.37
2023-03-12T14:39:26.156Z,47.27
2023-03-12T14:42:06.533Z,46.87
2023-03-12T14:44:37.289Z,47.88
2023-03-12T14:47:10.458Z,49.18
2023-03-12T14:49:46.126Z,48.89
2023-03-12T14:52:28.552Z,48.56
2023-03-12T14:55:01.559Z,51.05
2023-03-12T14:57:33.169Z,49.42
2023-03-12T15:00:28.362Z,51.07
2023-03-12T15:03:07.423Z,51.74
2023-03-12T15:05:50.041Z,50.64
2023-03-12T15:08:21.255Z,50.86
2023-03-12T15:10:57.263Z,51.16
2023-03-12T15:13:31.723Z,53.08
2023-03-12T15:16:06.698Z,51.40
2023-03-12T15:18:41.258Z,49.65
2023-03-12T15:21:15.783Z,49.42
2023-03-12T15:23:46.677Z,48.94
2023-03-12T15:26:20.136Z,48.89
2023-03-12T15:29:20.403Z,49.56
2023-03-12T15:31:53.482Z,49.39
2023-03-12T15:34:38.727Z,48.46
2023-03-12T15:37:39.186Z,49.82
2023-03-12T15:40:22.137Z,49.90
2023-03-12T15:42:59.384Z,50.71
2023-03-12T15:45:38.313Z,49.62
2023-03-12T15:48:35.134Z,50.31
2023-03-12T15:51:38.293Z,49.82
2023-03-12T15:54:27.957Z,50.52
2023-03-12T15:57:34.388Z,51.46
2023-03-12T16:00:21.022Z,51.67
2023-03-12T16:03:19.446Z,51.35
2023-03-12T16:05:48.949Z,51.42
2023-03-12T16:08:26.748Z,50.72
2023-03-12T16:10:55.792Z,52.17
2023-03-12T16:13:33.765Z,51.61
2023-03-12T16:16:05.862Z,50.37
2023-03-12T16:18:40.284Z,52.84
2023-03-12T16:21:09.132Z,51.74
2023-03-12T16:23:40.509Z,52.87
2023-03-12T16:26:15.423Z,53.18
2023-03-12T16:28:46.512Z,54.17
2023-03-12T16:31:16.197Z,53.55
2023-03-12T16:33:46.094Z,54.45
2023-03-12T16:36:23.562Z,54.16
2023-03-12T16:38:51.586Z,55.55
2023-03-12T16:41:21.604Z,54.23
2023-03-12T16:43:55.836Z,54.30
2023-03-12T16:46:23.968Z,54.54
2023-03-12T16:48:54.159Z,54.17
2023-03-12T16:51:34.174Z,55.62
2023-03-12T16:54:10.345Z,55.73
2023-03-12T16:56:48.199Z,57.37
2023-03-12T16:59:32.063Z,58.97
2023-03-12T17:02:30.817Z,58.45
2023-03-12T17:05:05.153Z,59.14
2023-03-12T17:07:41.109Z,59.17
2023-03-12T17:10:11.904Z,59.61
2023-03-12T17:12:48.275Z,59.86
2023-03-12T17:15:45.553Z,60.73
2023-03-12T17:18:17.712Z,61.01
2023-03-12T17:20:49.492Z,62.24
2023-03-12T17:23:18.238Z,61.37
2023-03-12T17:25:45.983Z,59.34
2023-03-12T17:28:17.158Z,60.73
2023-03-12T17:30:47.909Z,62.50
2023-03-12T17:33:20.902Z,63.79
2023-03-12T17:36:11.095Z,65.77
2023-03-12T17:38:38.568Z,64.92
2023-03-12T17:41:19.855Z,64.51
2023-03-12T17:44:01.876Z,65.32
2023-03-12T17:46:33.185Z,65.83
2023-03-12T17:49:09.861Z,67.02
2023-03-12T17:51:38.933Z,67.90
2023-03-12T17:54:37.106Z,68.55
2023-03-12T17:57:10.122Z,69.54
2023-03-12T17:59:44.025Z,68.35
2023-03-12T18:02:16.707Z,68.64
2023-03-12T18:04:45.618Z,68.65
2023-03-12T18:07:19.412Z,68.57
2023-03-12T18:09:50.137Z,69.30
2023-03-12T18:12:24.326Z,69.33
2023-03-12T18:15:08.664Z,65.85
2023-03-12T18:17:40.034Z,66.26
2023-03-12T18:20:37.683Z,67.62
2023-03-12T18:23:08.984Z,68.45
2023-03-12T18:25:46.776Z,68.83
2023-03-12T18:28:19.383Z,70.70
2023-03-12T18:31:16.820Z,72.40
2023-03-12T18:33:55.788Z,73.17
2023-03-12T18:36:27.770Z,74.78
2023-03-12T18:39:05.102Z,73.45
2023-03-12T18:41:36.647Z,73.70
2023-03-12T18:44:06.907Z,72.19
2023-03-12T18:46:39.229Z,72.44
2023-03-12T18:49:12.684Z,70.61
2023-03-12T18:51:41.959Z,72.66
2023-03-12T18:54:10.850Z,73.83
2023-03-12T18:56:42.139Z,71.86
2023-03-12T18:59:17.194Z,73.03
2023-03-12T19:01:48.277Z,72.82
2023-03-12T19:04:22.016Z,70.71
2023-03-12T19:06:59.598Z,71.58
2023-03-12T19:09:36.986Z,73.30
2023-03-12T19:12:39.437Z,72.07
2023-03-12T19:16:02.011Z,71.13
2023-03-12T19:18:34.434Z,70.60
2023-03-12T19:21:09.752Z,70.62
2023-03-12T19:23:40.802Z,70.46
2023-03-12T19:26:18.301Z,71.52
2023-03-12T19:28:55.369Z,72.82
2023-03-12T19:31:34.133Z,72.89
2023-03-12T19:34:04.982Z,72.06
2023-03-12T19:36:37.737Z,71.92
2023-03-12T19:39:44.482Z,74.09
2023-03-12T19:42:19.051Z,75.40
2023-03-12T19:44:52.107Z,74.69
2023-03-12T19:47:24.151Z,74.41
2023-03-12T19:49:53.707Z,74.08
2023-03-12T19:52:31.929Z,73.12
2023-03-12T19:55:05.678Z,74.13
2023-03-12T19:57:37.207Z,72.61
2023-03-12T20:00:38.468Z,73.23
2023-03-12T20:03:13.501Z,76.01
2023-03-12T20:05:47.776Z,72.66
2023-03-12T20:08:22.033Z,71.85
2023-03-12T20:10:53.284Z,71.70
2023-03-12T20:13:29.799Z,71.08
2023-03-12T20:16:04.815Z,72.23
2023-03-12T20:19:05.780Z,71.45
2023-03-12T20:21:41.221Z,72.25
2023-03-12T20:24:21.637Z,73.97
2023-03-12T20:26:55.766Z,76.36
2023-03-12T20:29:29.104Z,76.01
2023-03-12T20:32:35.015Z,76.50
2023-03-12T20:35:09.572Z,76.47
2023-03-12T20:37:42.018Z,77.21
2023-03-12T20:40:14.923Z,75.37
2023-03-12T20:42:48.281Z,73.98
2023-03-12T20:45:21.175Z,74.57
2023-03-12T20:47:53.824Z,73.68
2023-03-12T20:50:25.109Z,73.79
2023-03-12T20:52:58.127Z,73.73
2023-03-12T20:55:34.080Z,73.20
2023-03-12T20:58:03.787Z,73.98
2023-03-12T21:00:36.492Z,72.02
2023-03-12T21:03:06.054Z,73.30
2023-03-12T21:05:36.304Z,74.03
2023-03-12T21:09:27.841Z,74.16
2023-03-12T21:11:58.806Z,71.46
2023-03-12T21:14:30.230Z,71.03
2023-03-12T21:17:23.422Z,71.15
2023-03-12T21:19:56.892Z,71.60
2023-03-12T21:22:33.150Z,71.64
2023-03-12T21:25:08.181Z,71.70
2023-03-12T21:28:06.410Z,74.29
2023-03-12T21:31:05.597Z,68.86
2023-03-12T21:34:47.834Z,70.50
2023-03-12T21:37:21.036Z,71.17
2023-03-12T21:40:09.015Z,68.66
2023-03-12T21:43:15.999Z,69.26
2023-03-12T21:45:50.061Z,69.08
2023-03-12T21:48:25.640Z,69.45
2023-03-12T21:51:01.702Z,69.62
2023-03-12T21:53:41.570Z,69.96
2023-03-12T21:56:17.644Z,68.67
2023-03-12T21:58:50.786Z,69.24
2023-03-12T22:01:21.227Z,69.38
2023-03-12T22:03:57.281Z,70.93
2023-03-12T22:06:29.779Z,69.62
2023-03-12T22:09:25.973Z,70.35
2023-03-12T22:12:24.485Z,70.66
2023-03-12T22:15:04.041Z,69.63
2023-03-12T22:17:37.956Z,70.40
2023-03-12T22:20:44.255Z,71.01
2023-03-12T22:23:39.238Z,74.56
2023-03-12T22:26:20.407Z,74.35
2023-03-12T22:28:51.199Z,72.56
2023-03-12T22:31:48.986Z,76.47
2023-03-12T22:34:28.965Z,74.70
2023-03-12T22:37:08.230Z,74.47
2023-03-12T22:39:43.811Z,76.21
2023-03-12T22:42:15.525Z,74.39
2023-03-12T22:44:48.632Z,72.97
2023-03-12T22:48:00.575Z,72.69
2023-03-12T22:50:34.525Z,74.12
2023-03-12T22:53:06.388Z,71.71
2023-03-12T22:55:40.430Z,71.88
2023-03-12T22:58:11.998Z,71.87
2023-03-12T23:00:41.973Z,72.45
2023-03-12T23:03:39.399Z,71.44
2023-03-12T23:06:12.119Z,72.50
2023-03-12T23:08:43.922Z,72.91
2023-03-12T23:11:18.212Z,72.91
2023-03-12T23:13:54.018Z,71.50
2023-03-12T23:17:06.490Z,71.73
2023-03-12T23:19:40.324Z,73.96
2023-03-12T23:22:11.404Z,73.20
2023-03-12T23:24:40.498Z,74.00
2023-03-12T23:27:11.134Z,73.80
2023-03-12T23:29:39.166Z,73.51
2023-03-12T23:32:09.366Z,74.42
2023-03-12T23:34:39.060Z,73.47
2023-03-12T23:37:10.308Z,74.70
2023-03-12T23:39:53.434Z,75.76
2023-03-12T23:42:27.358Z,75.77
2023-03-12T23:45:00.923Z,75.32
2023-03-12T23:47:32.074Z,75.07
2023-03-12T23:50:06.376Z,75.96
2023-03-12T23:52:37.706Z,76.02
2023-03-12T23:55:07.174Z,75.51
2023-03-12T23:57:36.246Z,76.54
